createdAt,value
2022-09-30T00:01:35.834Z,5.90
2022-09-30T00:04:04.327Z,5.80
2022-09-30T00:06:33.447Z,5.80
2022-09-30T00:09:02.652Z,5.70
2022-09-30T00:11:35.288Z,5.70
2022-09-30T00:14:03.636Z,5.70
2022-09-30T00:16:36.278Z,5.70
2022-09-30T00:19:05.205Z,5.70
2022-09-30T00:21:36.307Z,5.60
2022-09-30T00:26:32.520Z,5.60
2022-09-30T00:29:00.314Z,5.60
2022-09-30T00:31:29.722Z,5.50
2022-09-30T00:34:10.297Z,5.40
2022-09-30T00:36:43.774Z,5.30
2022-09-30T00:39:22.762Z,5.20
2022-09-30T00:44:38.241Z,5.30
2022-09-30T00:47:07.094Z,5.30
2022-09-30T00:49:34.572Z,5.30
2022-09-30T00:52:01.985Z,5.30
2022-09-30T00:54:30.823Z,5.20
2022-09-30T00:57:02.685Z,5.10
2022-09-30T00:59:33.496Z,5.00
2022-09-30T01:02:01.616Z,5.10
2022-09-30T01:04:31.136Z,5.00
2022-09-30T01:07:06.026Z,5.00
2022-09-30T01:09:34.952Z,5.00
2022-09-30T01:12:07.330Z,4.90
2022-09-30T01:14:35.766Z,4.90
2022-09-30T01:17:03.143Z,4.90
2022-09-30T01:19:31.045Z,4.80
2022-09-30T01:22:07.894Z,4.80
2022-09-30T01:25:02.375Z,4.70
2022-09-30T01:27:29.980Z,4.70
2022-09-30T01:30:06.768Z,4.70
2022-09-30T01:32:43.272Z,4.70
2022-09-30T01:35:29.269Z,4.80
2022-09-30T01:38:03.890Z,4.80
2022-09-30T01:40:40.578Z,4.90
2022-09-30T01:43:14.226Z,4.90
2022-09-30T01:45:49.623Z,4.80
2022-09-30T01:50:49.141Z,4.70
2022-09-30T01:53:16.655Z,4.60
2022-09-30T01:55:44.078Z,4.60
2022-09-30T01:58:20.622Z,4.60
2022-09-30T02:00:50.782Z,4.60
2022-09-30T02:03:20.098Z,4.60
2022-09-30T02:05:55.793Z,4.60
2022-09-30T02:08:41.971Z,4.50
2022-09-30T02:11:13.422Z,4.50
2022-09-30T02:13:40.778Z,4.50
2022-09-30T02:16:13.086Z,4.40
2022-09-30T02:18:43.306Z,4.50
2022-09-30T02:21:12.090Z,4.40
2022-09-30T02:23:42.978Z,4.60
2022-09-30T02:26:16.875Z,3.10
2022-09-30T02:28:48.368Z,4.70
2022-09-30T02:31:18.132Z,4.70
2022-09-30T02:33:50.856Z,4.70
2022-09-30T02:38:49.051Z,4.70
2022-09-30T02:41:22.404Z,4.70
2022-09-30T02:43:50.749Z,4.60
2022-09-30T02:46:18.277Z,4.60
2022-09-30T02:48:54.994Z,4.60
2022-09-30T02:54:20.997Z,4.50
2022-09-30T02:57:11.519Z,4.40
2022-09-30T02:59:40.094Z,4.40
2022-09-30T03:02:07.471Z,4.40
2022-09-30T03:07:03.262Z,4.50
2022-09-30T03:09:30.894Z,4.50
2022-09-30T03:12:13.624Z,4.50
2022-09-30T03:14:44.022Z,4.50
2022-09-30T03:17:11.420Z,4.40
2022-09-30T03:19:51.133Z,4.50
2022-09-30T03:22:27.956Z,4.40
2022-09-30T03:25:04.574Z,4.40
2022-09-30T03:27:35.194Z,4.50
2022-09-30T03:30:24.662Z,4.50
2022-09-30T03:33:07.578Z,4.60
2022-09-30T03:35:49.773Z,4.70
2022-09-30T03:38:55.941Z,4.80
2022-09-30T03:41:30.111Z,4.90
2022-09-30T03:44:01.480Z,5.00
2022-09-30T03:46:37.312Z,5.10
2022-09-30T03:49:08.624Z,5.10
2022-09-30T03:51:38.379Z,5.20
2022-09-30T03:54:10.245Z,5.30
2022-09-30T03:56:42.237Z,5.30
2022-09-30T03:59:30.755Z,5.40
2022-09-30T04:01:58.174Z,5.40
2022-09-30T04:04:25.738Z,5.50
2022-09-30T04:06:53.073Z,5.50
2022-09-30T04:14:15.346Z,5.60
2022-09-30T04:16:43.282Z,5.70
2022-09-30T04:19:10.872Z,5.60
2022-09-30T04:24:06.552Z,5.70
2022-09-30T04:26:34.342Z,5.70
2022-09-30T04:31:30.143Z,5.60
2022-09-30T04:36:25.708Z,5.70
2022-09-30T04:43:49.336Z,5.80
2022-09-30T04:46:19.771Z,5.80
2022-09-30T04:48:48.097Z,5.70
2022-09-30T04:51:18.132Z,5.70
2022-09-30T04:53:47.115Z,5.80
2022-09-30T04:56:17.026Z,5.80
2022-09-30T05:01:15.352Z,5.90
2022-09-30T05:03:43.548Z,6.00
2022-09-30T05:06:11.927Z,6.00
2022-09-30T05:08:44.639Z,6.10
2022-09-30T05:11:21.261Z,6.20
2022-09-30T05:13:49.791Z,6.30
2022-09-30T05:16:18.126Z,6.40
2022-09-30T05:18:47.045Z,6.50
2022-09-30T05:21:17.512Z,6.60
2022-09-30T05:28:41.865Z,6.90
2022-09-30T05:33:37.916Z,7.10
2022-09-30T05:36:07.818Z,7.20
2022-09-30T05:38:35.986Z,7.20
2022-09-30T05:41:14.322Z,7.20
2022-09-30T05:43:45.492Z,7.30
2022-09-30T05:46:13.427Z,7.30
2022-09-30T05:48:41.094Z,7.30
2022-09-30T05:51:09.589Z,7.30
2022-09-30T05:53:38.797Z,7.40
2022-09-30T05:56:08.882Z,7.40
2022-09-30T05:58:37.874Z,7.40
2022-09-30T06:01:13.569Z,7.40
2022-09-30T06:03:46.827Z,7.50
2022-09-30T06:06:15.705Z,7.50
2022-09-30T06:11:15.587Z,7.70
2022-09-30T06:13:44.232Z,7.80
2022-09-30T06:16:13.981Z,7.80
2022-09-30T06:18:42.367Z,7.90
2022-09-30T06:21:12.767Z,8.00
2022-09-30T06:23:41.285Z,8.10
2022-09-30T06:26:11.807Z,8.20
2022-09-30T06:33:35.628Z,11.30
2022-09-30T06:36:04.997Z,8.50
2022-09-30T06:38:37.721Z,8.50
2022-09-30T06:41:05.934Z,8.60
2022-09-30T06:43:41.725Z,8.70
2022-09-30T06:49:09.934Z,8.80
2022-09-30T06:54:09.211Z,8.90
2022-09-30T06:56:37.077Z,9.00
2022-09-30T07:01:32.544Z,9.10
2022-09-30T07:04:00.915Z,9.20
2022-09-30T07:06:28.569Z,9.20
2022-09-30T07:08:56.977Z,9.20
2022-09-30T07:13:52.892Z,9.30
2022-09-30T07:16:21.488Z,9.30
2022-09-30T07:18:49.356Z,9.40
2022-09-30T07:21:17.347Z,9.40
2022-09-30T07:23:48.279Z,9.40
2022-09-30T07:26:19.172Z,9.50
2022-09-30T07:28:47.533Z,9.50
2022-09-30T07:31:32.606Z,9.50
2022-09-30T07:34:03.109Z,9.60
2022-09-30T07:36:33.644Z,9.60
2022-09-30T07:39:07.666Z,9.60
2022-09-30T07:41:39.212Z,9.70
2022-09-30T07:44:12.531Z,9.70
2022-09-30T07:46:41.101Z,9.80
2022-09-30T07:49:14.606Z,9.80
2022-09-30T07:51:45.859Z,9.70
2022-09-30T07:54:17.140Z,9.80
2022-09-30T07:57:08.606Z,9.80
2022-09-30T07:59:36.876Z,9.80
2022-09-30T08:02:06.852Z,9.80
2022-09-30T08:04:35.989Z,9.80
2022-09-30T08:07:05.518Z,9.90
2022-09-30T08:09:32.928Z,9.80
2022-09-30T08:12:03.421Z,9.90
2022-09-30T08:14:31.265Z,10.00
2022-09-30T08:19:30.425Z,10.10
2022-09-30T08:21:58.677Z,10.30
2022-09-30T08:24:27.663Z,10.20
2022-09-30T08:26:55.889Z,10.30
2022-09-30T08:32:11.382Z,10.40
2022-09-30T08:34:38.989Z,10.30
2022-09-30T08:37:09.511Z,10.30
2022-09-30T08:39:38.722Z,10.40
2022-09-30T08:42:48.386Z,10.50
2022-09-30T08:45:30.970Z,10.40
2022-09-30T08:48:04.683Z,10.50
2022-09-30T08:50:47.020Z,10.50
2022-09-30T08:53:28.283Z,10.50
2022-09-30T08:55:58.140Z,10.60
2022-09-30T08:58:32.422Z,10.60
2022-09-30T09:01:22.934Z,10.60
2022-09-30T09:03:50.618Z,10.70
2022-09-30T09:06:50.545Z,10.80
2022-09-30T09:09:43.938Z,10.90
2022-09-30T09:12:15.770Z,11.00
2022-09-30T09:15:02.294Z,11.10
2022-09-30T09:19:58.058Z,7.20
2022-09-30T09:22:28.160Z,11.30
2022-09-30T09:24:56.593Z,11.40
2022-09-30T09:27:55.945Z,11.50
2022-09-30T09:30:25.949Z,11.70
2022-09-30T09:33:00.897Z,11.80
2022-09-30T09:35:59.482Z,11.90
2022-09-30T09:39:01.304Z,12.00
2022-09-30T09:42:07.472Z,12.00
2022-09-30T09:44:49.718Z,12.10
2022-09-30T09:47:17.718Z,12.10
2022-09-30T09:49:46.681Z,12.20
2022-09-30T09:52:14.290Z,12.20
2022-09-30T09:54:48.426Z,12.20
2022-09-30T09:57:18.506Z,12.30
2022-09-30T10:02:31.827Z,12.40
2022-09-30T10:05:03.796Z,12.40
2022-09-30T10:07:33.989Z,12.50
2022-09-30T10:10:23.527Z,12.60
2022-09-30T10:12:51.764Z,12.60
2022-09-30T10:15:24.748Z,12.60
2022-09-30T10:17:56.127Z,12.70
2022-09-30T10:20:36.620Z,12.70
2022-09-30T10:23:17.851Z,12.70
2022-09-30T10:25:59.981Z,12.70
2022-09-30T10:28:31.541Z,12.70
2022-09-30T10:31:08.408Z,12.70
2022-09-30T10:33:56.824Z,12.70
2022-09-30T10:36:34.789Z,12.80
2022-09-30T10:39:19.251Z,12.80
2022-09-30T10:41:47.014Z,12.80
2022-09-30T10:44:18.810Z,12.80
2022-09-30T10:46:49.797Z,12.80
2022-09-30T10:49:44.103Z,12.70
2022-09-30T10:52:34.029Z,12.70
2022-09-30T10:55:13.277Z,12.60
2022-09-30T10:57:44.159Z,12.50
2022-09-30T11:00:18.679Z,12.50
2022-09-30T11:02:59.244Z,12.40
2022-09-30T11:05:41.294Z,14.70
2022-09-30T11:08:36.709Z,12.40
2022-09-30T11:11:10.942Z,12.30
2022-09-30T11:16:09.806Z,12.20
2022-09-30T11:21:18.568Z,12.00
2022-09-30T11:24:08.715Z,12.10
2022-09-30T11:26:53.704Z,12.10
2022-09-30T11:29:40.361Z,12.10
2022-09-30T11:32:43.378Z,12.10
2022-09-30T11:35:29.600Z,12.10
2022-09-30T11:38:18.889Z,12.10
2022-09-30T11:40:54.983Z,12.10
2022-09-30T11:43:33.390Z,12.10
2022-09-30T11:46:30.549Z,12.10
2022-09-30T11:49:35.816Z,12.20
2022-09-30T11:52:29.622Z,12.10
2022-09-30T11:55:29.030Z,12.20
2022-09-30T11:58:28.790Z,12.10
2022-09-30T12:00:59.010Z,12.20
2022-09-30T12:03:36.285Z,12.20
2022-09-30T12:06:33.805Z,12.20
2022-09-30T12:09:15.813Z,12.20
2022-09-30T12:11:51.224Z,12.20
2022-09-30T12:14:24.949Z,12.20
2022-09-30T12:16:58.059Z,12.20
2022-09-30T12:19:45.768Z,12.20
2022-09-30T12:22:37.793Z,9.00
2022-09-30T12:25:29.380Z,12.20
2022-09-30T12:28:41.123Z,12.20
2022-09-30T12:31:37.492Z,12.20
2022-09-30T12:34:44.323Z,12.20
2022-09-30T12:37:31.326Z,12.20
2022-09-30T12:40:06.891Z,12.20
2022-09-30T12:43:02.465Z,12.20
2022-09-30T12:45:40.195Z,12.20
2022-09-30T12:48:17.380Z,12.20
2022-09-30T12:50:50.378Z,12.20
2022-09-30T12:53:25.802Z,12.30
2022-09-30T12:55:55.367Z,12.30
2022-09-30T12:58:32.715Z,12.30
2022-09-30T13:01:16.732Z,12.30
2022-09-30T13:04:03.225Z,12.30
2022-09-30T13:06:52.522Z,12.30
2022-09-30T13:09:42.219Z,12.20
2022-09-30T13:12:25.244Z,12.20
2022-09-30T13:15:28.681Z,12.20
2022-09-30T13:18:27.167Z,12.20
2022-09-30T13:21:10.739Z,12.20
2022-09-30T13:23:40.823Z,12.20
2022-09-30T13:26:24.519Z,12.20
2022-09-30T13:29:16.587Z,12.10
2022-09-30T13:31:50.528Z,12.10
2022-09-30T13:34:31.325Z,12.10
2022-09-30T13:37:04.368Z,12.10
2022-09-30T13:39:35.859Z,12.10
2022-09-30T13:42:15.416Z,12.10
2022-09-30T13:45:08.245Z,12.10
2022-09-30T13:47:40.239Z,12.10
2022-09-30T13:50:13.944Z,12.10
2022-09-30T13:52:43.088Z,12.10
2022-09-30T13:55:41.853Z,12.10
2022-09-30T13:58:47.129Z,12.10
2022-09-30T14:01:36.428Z,12.00
2022-09-30T14:04:23.635Z,12.00
2022-09-30T14:07:42.726Z,12.00
2022-09-30T14:11:02.739Z,12.00
2022-09-30T14:13:39.477Z,12.00
2022-09-30T14:16:40.171Z,12.00
2022-09-30T14:19:19.424Z,14.40
2022-09-30T14:21:56.871Z,12.00
2022-09-30T14:24:27.453Z,12.00
2022-09-30T14:27:33.523Z,12.10
2022-09-30T14:30:15.043Z,12.00
2022-09-30T14:32:46.350Z,12.10
2022-09-30T14:35:22.202Z,12.10
2022-09-30T14:37:56.645Z,12.10
2022-09-30T14:40:30.748Z,12.10
2022-09-30T14:43:05.211Z,12.10
2022-09-30T14:45:36.928Z,12.10
2022-09-30T14:48:31.071Z,12.10
2022-09-30T14:51:00.998Z,12.10
2022-09-30T14:53:39.514Z,12.10
2022-09-30T14:56:41.439Z,12.10
2022-09-30T14:59:34.759Z,12.20
2022-09-30T15:02:22.210Z,12.10
2022-09-30T15:04:52.874Z,12.20
2022-09-30T15:07:20.642Z,12.20
2022-09-30T15:09:50.239Z,12.20
2022-09-30T15:12:23.115Z,12.20
2022-09-30T15:14:59.062Z,12.20
2022-09-30T15:17:36.963Z,12.20
2022-09-30T15:20:30.930Z,12.30
2022-09-30T15:23:03.261Z,12.30
2022-09-30T15:25:32.802Z,12.30
2022-09-30T15:28:00.798Z,12.30
2022-09-30T15:30:30.008Z,12.30
2022-09-30T15:33:01.080Z,12.40
2022-09-30T15:35:29.701Z,12.40
2022-09-30T15:38:27.673Z,12.40
2022-09-30T15:41:00.886Z,12.50
2022-09-30T15:43:36.556Z,12.50
2022-09-30T15:47:00.256Z,12.50
2022-09-30T15:49:38.567Z,12.50
2022-09-30T15:52:36.549Z,12.60
2022-09-30T15:55:43.900Z,12.50
2022-09-30T15:58:27.074Z,12.60
2022-09-30T16:01:23.593Z,12.60
2022-09-30T16:04:01.507Z,12.60
2022-09-30T16:06:52.356Z,12.60
2022-09-30T16:09:31.103Z,12.70
2022-09-30T16:12:13.982Z,12.70
2022-09-30T16:14:50.116Z,12.50
2022-09-30T16:17:39.976Z,12.70
2022-09-30T16:20:23.952Z,12.80
2022-09-30T16:22:56.254Z,12.70
2022-09-30T16:25:33.866Z,12.80
2022-09-30T16:28:13.159Z,12.80
2022-09-30T16:30:47.131Z,12.80
2022-09-30T16:33:16.563Z,12.80
2022-09-30T16:35:45.428Z,12.80
2022-09-30T16:38:17.710Z,12.90
2022-09-30T16:40:48.099Z,12.90
2022-09-30T16:43:17.232Z,12.90
2022-09-30T16:45:45.045Z,12.90
2022-09-30T16:48:17.902Z,13.00
2022-09-30T16:50:53.802Z,13.00
2022-09-30T16:53:21.980Z,13.10
2022-09-30T16:55:50.140Z,13.00
2022-09-30T16:58:19.659Z,13.10
2022-09-30T17:00:47.304Z,13.10
2022-09-30T17:03:17.282Z,13.10
2022-09-30T17:05:46.646Z,13.10
2022-09-30T17:08:17.051Z,13.20
2022-09-30T17:10:48.020Z,13.10
2022-09-30T17:13:16.815Z,13.20
2022-09-30T17:15:50.201Z,13.20
2022-09-30T17:18:18.034Z,13.30
2022-09-30T17:20:48.983Z,13.20
2022-09-30T17:23:16.466Z,13.40
2022-09-30T17:25:44.113Z,13.40
2022-09-30T17:28:13.417Z,13.50
2022-09-30T17:30:43.702Z,13.40
2022-09-30T17:33:11.450Z,13.40
2022-09-30T17:35:40.520Z,13.40
2022-09-30T17:38:13.509Z,13.30
2022-09-30T17:40:59.533Z,13.20
2022-09-30T17:43:27.145Z,13.30
2022-09-30T17:45:59.861Z,13.20
2022-09-30T17:48:27.642Z,13.20
2022-09-30T17:50:55.540Z,13.20
2022-09-30T17:53:23.987Z,13.10
2022-09-30T17:56:22.512Z,13.10
2022-09-30T17:58:51.007Z,13.00
2022-09-30T18:01:21.125Z,13.00
2022-09-30T18:03:52.979Z,12.90
2022-09-30T18:06:20.841Z,12.90
2022-09-30T18:08:49.999Z,12.90
2022-09-30T18:11:22.206Z,12.90
2022-09-30T18:13:58.111Z,12.90
2022-09-30T18:16:30.950Z,12.90
2022-09-30T18:19:03.820Z,12.90
2022-09-30T18:21:32.850Z,12.90
2022-09-30T18:24:00.793Z,12.90
2022-09-30T18:26:33.410Z,12.90
2022-09-30T18:29:04.173Z,12.90
2022-09-30T18:31:37.282Z,12.80
2022-09-30T18:34:06.604Z,12.80
2022-09-30T18:36:35.239Z,12.80
2022-09-30T18:39:02.972Z,12.80
2022-09-30T18:41:35.956Z,12.80
2022-09-30T18:44:04.464Z,12.70
2022-09-30T18:46:32.114Z,12.70
2022-09-30T18:48:59.829Z,12.60
2022-09-30T18:51:28.630Z,12.50
2022-09-30T18:53:59.620Z,12.40
2022-09-30T18:56:31.865Z,12.30
2022-09-30T18:59:00.913Z,12.30
2022-09-30T19:01:28.669Z,12.30
2022-09-30T19:06:24.461Z,12.20
2022-09-30T19:11:19.945Z,12.40
2022-09-30T19:13:48.196Z,12.40
2022-09-30T19:16:18.498Z,12.50
2022-09-30T19:18:46.794Z,12.50
2022-09-30T19:21:16.370Z,12.50
2022-09-30T19:28:40.421Z,12.50
2022-09-30T19:31:19.834Z,12.50
2022-09-30T19:33:55.749Z,12.50
2022-09-30T19:36:27.111Z,12.60
2022-09-30T19:39:10.683Z,12.60
2022-09-30T19:41:39.967Z,12.60
2022-09-30T19:44:07.713Z,12.60
2022-09-30T19:46:35.604Z,12.60
2022-09-30T19:49:03.351Z,12.60
2022-09-30T19:51:33.485Z,12.60
2022-09-30T19:54:06.949Z,12.60
2022-09-30T19:56:36.758Z,12.70
2022-09-30T19:59:05.431Z,12.70
2022-09-30T20:01:35.013Z,12.70
2022-09-30T20:04:05.574Z,12.70
2022-09-30T20:06:34.586Z,12.70
2022-09-30T20:09:05.757Z,12.70
2022-09-30T20:11:36.378Z,12.70
2022-09-30T20:14:25.236Z,12.70
2022-09-30T20:16:54.282Z,12.70
2022-09-30T20:19:22.964Z,12.60
2022-09-30T20:21:52.318Z,12.60
2022-09-30T20:24:20.246Z,12.60
2022-09-30T20:26:48.117Z,12.60
2022-09-30T20:31:48.283Z,12.50
2022-09-30T20:34:17.914Z,12.50
2022-09-30T20:36:45.628Z,12.50
2022-09-30T20:39:13.225Z,12.40
2022-09-30T20:41:42.016Z,12.40
2022-09-30T20:44:16.244Z,12.40
2022-09-30T20:46:44.145Z,12.30
2022-09-30T20:49:11.806Z,12.30
2022-09-30T20:54:07.415Z,12.30
2022-09-30T20:57:02.403Z,12.20
2022-09-30T20:59:23.266Z,12.30
2022-09-30T21:01:51.281Z,12.10
2022-09-30T21:04:18.792Z,12.10
2022-09-30T21:06:47.749Z,12.10
2022-09-30T21:11:44.407Z,12.10
2022-09-30T21:14:12.029Z,12.10
2022-09-30T21:16:39.831Z,12.10
2022-09-30T21:19:07.446Z,12.10
2022-09-30T21:21:35.388Z,12.10
2022-09-30T21:24:03.349Z,12.00
2022-09-30T21:26:31.381Z,12.00
2022-09-30T21:29:00.580Z,12.00
2022-09-30T21:31:28.690Z,11.90
2022-09-30T21:33:58.789Z,11.90
2022-09-30T21:36:28.060Z,11.90
2022-09-30T21:39:01.441Z,11.80
2022-09-30T21:41:29.734Z,11.80
2022-09-30T21:46:29.695Z,11.80
2022-09-30T21:49:14.432Z,11.90
2022-09-30T21:51:42.218Z,11.90
2022-09-30T21:54:11.883Z,11.90
2022-09-30T21:56:40.458Z,12.00
2022-09-30T21:59:08.065Z,11.90
2022-09-30T22:01:37.603Z,12.00
2022-09-30T22:04:06.084Z,12.00
2022-09-30T22:06:33.794Z,12.00
2022-09-30T22:09:01.710Z,11.90
2022-09-30T22:11:30.910Z,11.90
2022-09-30T22:14:00.419Z,11.90
2022-09-30T22:16:32.126Z,11.90
2022-09-30T22:19:01.376Z,11.80
2022-09-30T22:21:33.938Z,11.80
2022-09-30T22:24:03.835Z,11.80
2022-09-30T22:26:33.111Z,11.80
2022-09-30T22:29:12.010Z,11.80
2022-09-30T22:31:40.138Z,11.70
2022-09-30T22:34:31.989Z,11.70
2022-09-30T22:37:18.507Z,11.70
2022-09-30T22:39:46.269Z,11.70
2022-09-30T22:44:41.918Z,11.80
2022-09-30T22:47:10.726Z,11.80
2022-09-30T22:49:38.536Z,11.80
2022-09-30T22:52:06.737Z,11.70
2022-09-30T22:54:36.403Z,11.80
2022-09-30T22:57:05.654Z,11.80
2022-09-30T23:02:01.240Z,11.80
2022-09-30T23:04:29.297Z,11.70
2022-09-30T23:06:57.159Z,11.80
2022-09-30T23:09:24.972Z,11.80
2022-09-30T23:11:54.461Z,11.80
2022-09-30T23:14:22.503Z,11.90
2022-09-30T23:16:50.237Z,11.80
2022-09-30T23:19:18.518Z,11.80
2022-09-30T23:21:46.836Z,11.90
2022-09-30T23:24:15.060Z,11.90
2022-09-30T23:26:43.770Z,12.00
2022-09-30T23:29:13.681Z,12.00
2022-09-30T23:31:41.969Z,12.00
2022-09-30T23:36:37.871Z,12.00
2022-09-30T23:39:14.518Z,12.00
2022-09-30T23:41:44.819Z,12.00
2022-09-30T23:44:14.035Z,12.00
2022-09-30T23:52:12.725Z,12.00
2022-09-30T23:54:42.579Z,12.00
2022-09-30T23:57:11.906Z,12.10
2022-09-30T23:59:40.064Z,12.10
